Date,TemperatureHighF,TemperatureAvgF,TemperatureLowF,DewpointHighF,DewpointAvgF,DewpointLowF,HumidityHigh,HumidityAvg,HumidityLow,PressureMaxIn,PressureMinIn,WindSpeedMaxMPH,WindSpeedAvgMPH,GustSpeedMaxMPH,PrecipitationSumIn
2013-1-1,76.6,64.8,54.3,59.3,55.4,50.5,88,73,55,30.09,29.91,9,2,0,0.00
2013-1-2,80.8,68.1,56.8,65.6,59.6,53.4,90,76,55,29.94,29.83,13,1,0,0.00
2013-1-3,75.2,65.5,58.5,64.7,60.7,55.0,90,85,70,30.04,29.89,11,4,0,0.03
2013-1-4,61.5,58.5,55.6,56.3,54.6,51.8,89,87,82,30.14,30.01,10,7,0,0.02
2013-1-5,74.7,64.3,55.0,61.3,56.3,50.1,89,76,62,30.18,30.04,10,6,0,0.00
2013-1-6,81.5,68.9,63.1,67.2,62.9,58.2,91,82,62,30.07,29.92,7,3,0,0.02
2013-1-7,68.7,63.7,58.6,64.3,56.9,51.6,88,79,66,30.09,29.97,12,7,0,0.00
2013-1-8,81.0,70.7,61.7,67.1,63.0,58.2,90,77,59,30.09,29.98,13,5,0,0.00
2013-1-9,83.5,74.8,68.7,68.8,66.8,65.4,90,77,56,30.16,30.04,11,6,0,0.00
2013-1-10,81.0,73.1,67.3,68.5,64.4,60.8,94,76,54,30.17,30.06,15,7,0,0.00
2013-1-11,81.7,72.1,66.2,68.7,64.3,61.0,90,77,59,30.12,30.00,12,5,0,0.00
2013-1-12,80.4,71.8,63.9,68.1,63.2,61.5,93,76,57,30.06,29.94,11,5,0,0.00
2013-1-13,82.0,71.9,63.5,64.6,62.6,59.9,89,74,51,30.02,29.92,9,5,0,0.00
2013-1-14,80.2,71.2,64.2,65.6,62.5,59.6,92,75,57,30.04,29.96,11,4,0,0.00
2013-1-15,81.3,71.5,63.0,66.6,62.7,60.0,92,75,53,30.00,29.90,9,3,0,0.00
2013-1-16,81.9,71.5,63.3,66.5,60.8,57.0,91,71,49,29.96,29.85,9,2,0,0.00
2013-1-17,78.8,64.3,53.4,66.9,56.5,42.7,92,76,64,29.99,29.84,8,3,0,0.00
2013-1-18,62.8,53.4,41.7,56.7,45.2,32.6,86,74,65,30.17,29.98,17,8,0,0.01
2013-1-19,73.0,63.6,54.5,59.6,54.9,48.1,81,74,62,30.15,30.00,14,8,0,0.00
2013-1-20,74.7,65.0,59.2,61.7,57.7,53.8,88,78,64,30.04,29.91,9,6,0,0.00
2013-1-21,74.7,66.7,61.5,62.1,57.1,53.5,78,71,65,29.96,29.86,7,3,0,0.00
2013-1-22,65.7,59.1,51.1,53.2,44.7,38.9,75,60,39,30.15,29.93,14,7,0,0.00
2013-1-23,68.5,57.0,47.1,44.2,39.7,35.5,78,54,32,30.25,30.14,11,5,0,0.00
2013-1-24,73.0,58.7,46.2,51.2,46.7,40.4,86,66,45,30.21,30.09,8,3,0,0.00
2013-1-25,75.7,61.5,50.4,56.0,49.9,44.2,90,68,44,30.19,30.04,7,2,0,0.00
2013-1-26,74.7,62.3,49.5,57.9,51.7,44.8,88,70,49,30.16,30.02,8,2,0,0.00
2013-1-27,77.4,65.6,54.1,60.9,56.1,50.9,91,73,51,30.19,30.08,12,4,0,0.00
2013-1-28,77.7,69.4,63.1,64.4,62.2,59.2,91,79,63,30.20,30.08,14,6,0,0.00
2013-1-29,82.2,71.5,64.2,68.6,64.7,62.0,98,81,56,30.11,29.95,12,6,0,0.00
2013-1-30,84.2,73.2,65.3,65.7,63.8,61.0,95,74,52,29.97,29.75,12,5,0,0.00
2013-1-31,69.4,59.0,48.9,65.0,45.8,33.3,89,64,38,30.11,29.76,12,4,0,0.07
2013-2-1,67.5,55.1,45.7,41.1,36.5,32.0,70,52,28,30.23,30.09,13,5,0,0.00
2013-2-2,71.8,58.3,45.9,46.6,41.6,35.6,71,55,37,30.19,30.01,9,4,0,0.00
2013-2-3,71.8,57.3,45.7,51.3,43.1,34.9,74,60,43,30.08,29.94,11,4,0,0.00
2013-2-4,70.0,56.2,43.0,49.2,41.4,38.3,89,61,35,30.03,29.90,8,2,0,0.00
2013-2-5,77.5,61.4,45.3,54.5,47.1,36.8,85,61,44,29.98,29.85,6,2,0,0.00
2013-2-6,78.8,68.3,58.1,60.7,56.5,50.3,80,67,52,29.98,29.89,11,3,0,0.00
2013-2-7,82.0,71.7,64.4,63.6,60.9,58.4,84,70,50,29.94,29.71,10,5,0,0.00
2013-2-8,81.0,69.8,57.6,63.1,58.5,53.2,88,70,43,29.94,29.73,8,4,0,0.00
2013-2-9,75.6,64.1,54.3,56.1,54.1,51.4,91,72,47,30.06,29.93,11,6,0,0.00
2013-2-10,77.5,67.9,60.8,60.5,56.9,53.7,81,69,55,30.13,30.01,18,8,0,0.00
2013-2-11,82.9,71.2,61.0,62.8,60.1,56.3,88,69,50,30.07,29.91,11,4,0,0.00
2013-2-12,85.3,72.6,61.9,67.0,63.1,59.0,94,74,50,29.96,29.78,6,2,0,0.00
2013-2-13,86.5,73.7,63.3,69.1,65.3,54.5,93,77,52,29.83,29.68,9,5,0,0.20
2013-2-14,66.0,62.8,60.3,59.0,57.0,53.8,92,82,69,29.90,29.78,10,3,0,0.68
2013-2-15,68.5,60.0,55.8,59.0,54.3,49.5,93,82,63,29.94,29.81,10,3,0,0.12
2013-2-16,69.6,57.9,50.4,52.9,45.4,33.4,87,65,41,30.00,29.79,11,4,0,0.00
2013-2-17,54.0,46.7,40.3,33.2,26.4,21.4,59,46,29,30.23,30.01,16,7,0,0.00
2013-2-18,68.2,53.9,37.9,47.8,39.1,28.0,71,58,43,30.25,30.09,14,6,0,0.00
2013-2-19,79.3,64.7,51.1,57.2,52.0,45.0,88,65,46,30.10,29.93,9,2,0,0.00
2013-2-20,77.9,66.6,57.6,62.4,58.1,52.4,94,76,58,30.00,29.86,9,3,0,0.00
2013-2-21,81.5,70.2,59.2,63.3,58.8,53.5,84,68,50,29.98,29.83,10,4,0,0.00
2013-2-22,85.3,74.5,63.7,67.8,64.3,61.9,95,72,50,29.94,29.82,13,4,0,0.00
2013-2-23,87.3,75.6,68.9,69.4,66.9,63.9,95,77,50,29.86,29.73,9,3,0,0.21
2013-2-24,81.1,73.0,67.6,69.2,67.4,64.9,95,83,64,29.81,29.72,9,3,0,0.00
2013-2-25,86.7,75.3,66.9,72.4,65.2,61.1,95,73,49,29.76,29.61,8,3,0,0.03
2013-2-26,79.0,71.6,63.7,72.3,66.2,60.7,90,83,73,29.73,29.58,8,3,0,0.16
2013-2-27,76.6,65.9,56.1,62.1,55.9,47.4,93,72,47,29.83,29.72,8,2,0,0.01
2013-2-28,75.2,62.5,51.3,55.3,49.9,46.2,88,65,44,29.87,29.75,9,3,0,0.00
2013-3-1,64.0,56.0,50.7,46.1,41.4,38.9,76,59,42,29.88,29.78,9,4,0,0.00
2013-3-2,60.6,52.0,44.4,40.9,36.5,33.6,67,56,44,29.93,29.83,9,4,0,0.00
2013-3-3,55.0,46.0,39.7,36.7,32.2,28.1,73,59,48,30.03,29.87,14,5,0,0.00
2013-3-4,66.7,51.6,37.4,40.2,32.7,28.2,71,51,31,30.12,29.97,12,3,0,0.00
2013-3-5,77.5,61.5,43.9,54.9,46.9,35.7,82,60,41,30.05,29.89,7,3,0,0.00
2013-3-6,67.8,58.8,48.2,60.1,43.0,33.7,90,59,32,30.01,29.81,12,5,0,0.08
2013-3-7,67.6,54.0,43.3,44.4,37.8,31.5,69,55,40,30.09,29.99,14,5,0,0.00
2013-3-8,75.0,59.9,43.0,52.0,42.7,37.6,83,57,28,30.10,29.97,9,4,0,0.00
2013-3-9,74.3,63.4,50.2,52.5,49.1,44.1,81,61,42,30.10,29.99,11,6,0,0.00
2013-3-10,77.9,67.0,57.6,57.0,54.1,50.5,81,65,47,30.04,29.92,18,8,0,0.03
2013-3-11,78.4,68.5,58.1,60.4,56.4,52.3,83,66,53,29.97,29.76,14,5,0,0.00
2013-3-12,71.1,65.6,55.6,65.8,58.9,50.1,91,79,67,29.89,29.73,11,4,0,0.47
2013-3-13,74.8,61.2,51.6,50.1,44.1,39.6,83,57,31,30.04,29.89,14,5,0,0.00
2013-3-14,66.7,56.8,48.0,44.8,38.4,34.4,77,52,32,30.14,30.03,14,6,0,0.01
2013-3-15,73.2,58.1,43.0,47.2,40.5,36.1,84,55,34,30.17,30.01,8,3,0,0.00
2013-3-16,79.9,62.2,45.5,51.9,46.0,39.0,84,58,31,30.07,29.91,6,2,0,0.00
2013-3-17,79.3,65.6,51.8,57.9,53.7,48.7,91,68,47,30.01,29.86,9,2,0,0.03
2013-3-18,78.6,69.9,62.4,63.7,60.3,55.1,84,72,59,29.91,29.74,9,2,0,0.01
2013-3-19,85.3,72.3,63.7,67.0,62.6,58.8,93,74,48,29.86,29.73,8,2,0,0.02
2013-3-20,77.2,69.1,59.9,65.6,61.0,54.5,88,76,58,29.81,29.64,8,3,0,0.02
2013-3-21,72.0,60.7,50.5,56.6,43.3,31.8,89,57,29,29.84,29.72,9,3,0,0.04
2013-3-22,80.2,62.8,49.1,63.8,51.4,37.9,90,68,41,29.88,29.75,9,4,0,0.56
2013-3-23,86.5,73.7,63.5,71.6,65.9,60.7,95,78,55,29.85,29.63,9,2,0,0.07
2013-3-24,82.2,75.2,70.7,71.4,68.8,66.1,91,81,65,29.69,29.47,9,3,0,0.06
2013-3-25,73.4,65.8,53.4,66.3,47.5,32.4,90,56,26,29.89,29.58,9,2,0,0.03
2013-3-26,60.6,52.9,46.0,41.7,33.1,29.8,64,48,34,30.12,29.90,11,5,0,0.38
2013-3-27,64.6,52.1,41.2,37.3,34.6,31.5,69,53,34,30.20,30.08,9,4,0,0.00
2013-3-28,73.0,57.6,41.9,43.9,38.9,35.2,82,53,28,30.19,30.05,9,3,0,0.02
2013-3-29,74.8,61.5,47.7,51.0,44.0,38.0,86,57,28,30.22,30.06,9,2,0,0.01
2013-3-30,80.4,64.4,51.1,55.9,49.6,43.2,86,61,40,30.14,29.98,9,1,0,0.01
2013-3-31,83.7,69.9,59.5,59.3,54.0,49.2,72,58,39,30.05,29.84,9,2,0,0.00
2013-4-1,84.4,72.6,62.6,66.2,60.6,56.1,83,67,51,29.90,29.79,6,1,0,0.03
2013-4-2,85.6,76.3,68.9,63.9,59.9,57.2,69,58,42,29.94,29.85,9,4,0,0.11
2013-4-3,85.8,70.8,65.7,67.0,62.3,57.8,88,75,50,29.92,29.83,9,5,0,0.20
2013-4-4,71.8,69.1,66.6,67.5,64.6,60.8,92,86,72,29.88,29.70,9,2,0,0.52
2013-4-5,76.8,68.5,61.5,66.0,60.8,53.3,92,78,53,29.82,29.66,9,2,0,0.11
2013-4-6,79.3,66.3,56.3,59.2,55.4,50.9,88,70,48,29.98,29.83,14,7,0,0.10
2013-4-7,83.3,71.0,61.0,62.4,58.6,56.3,89,67,46,30.02,29.90,10,6,0,0.01
2013-4-8,83.5,73.8,62.6,63.7,59.8,57.5,89,63,43,29.99,29.89,9,4,0,0.04
2013-4-9,83.3,72.3,64.6,66.7,61.9,58.6,91,71,51,30.01,29.92,16,5,0,0.71
2013-4-10,87.8,72.5,62.8,67.7,63.2,58.4,91,74,47,29.97,29.80,17,4,0,0.35
2013-4-11,88.2,78.6,72.3,71.5,69.2,67.5,90,75,53,29.84,29.66,15,6,0,1.05
2013-4-12,82.9,76.6,73.0,72.5,70.0,67.5,93,81,64,29.75,29.62,10,2,0,0.05
2013-4-13,86.2,77.0,69.6,70.4,66.8,61.6,92,73,55,29.83,29.72,8,2,0,0.00
2013-4-14,89.8,77.3,67.8,72.3,66.6,58.2,81,70,56,29.84,29.67,9,4,0,0.05
2013-4-15,90.7,77.5,65.3,70.1,64.1,57.3,78,65,48,29.92,29.78,9,2,0,0.00
2013-4-16,89.8,78.7,70.5,70.8,67.5,64.8,87,70,53,29.99,29.88,10,6,0,0.36
2013-4-17,86.7,76.7,67.8,68.4,65.3,63.3,91,69,50,29.99,29.86,13,6,0,0.07
2013-4-18,88.9,78.8,69.3,69.1,66.9,64.4,90,69,49,29.91,29.77,11,5,0,0.30
2013-4-19,91.8,80.4,72.5,73.0,69.0,64.0,92,70,50,29.86,29.75,11,2,0,0.05
2013-4-20,75.6,69.8,62.2,70.7,62.5,56.0,90,78,66,30.00,29.81,10,6,0,0.11
2013-4-21,81.3,69.5,60.1,68.8,63.4,55.3,90,81,64,29.99,29.85,9,6,0,0.28
2013-4-22,80.2,71.4,66.4,69.0,65.6,61.7,95,83,59,29.93,29.81,14,6,0,0.52
2013-4-23,84.2,73.0,64.6,65.6,62.1,59.4,89,70,51,29.95,29.86,15,8,0,0.06
2013-4-24,88.0,74.7,61.5,64.8,60.6,56.8,89,64,38,29.99,29.90,8,4,0,0.01
2013-4-25,90.9,80.9,65.5,66.3,63.0,60.5,84,56,41,30.05,29.95,8,2,0,0.00
2013-4-26,91.4,78.3,65.5,68.9,63.0,58.6,82,61,47,30.09,29.98,10,3,0,0.00
2013-4-27,86.7,78.9,71.6,66.5,64.5,63.1,77,62,51,30.05,29.93,10,8,0,0.42
2013-4-28,85.6,76.0,67.8,64.3,62.6,60.5,82,65,45,29.98,29.81,12,6,0,1.94
2013-4-29,87.6,76.5,68.0,66.6,63.6,60.7,82,66,48,29.88,29.73,9,2,0,0.00
2013-4-30,82.9,70.9,67.5,68.0,65.3,63.1,90,83,61,29.85,29.76,13,1,0,1.80
2013-5-1,77.0,72.0,68.2,70.1,67.5,64.5,92,86,74,29.85,29.79,10,5,0,0.46
2013-5-2,79.2,70.8,64.6,69.8,65.7,61.6,92,84,70,29.81,29.65,9,3,0,0.36
2013-5-3,85.8,72.5,65.7,69.5,66.2,63.3,93,82,54,29.69,29.53,9,3,0,0.36
2013-5-4,84.2,74.0,68.0,67.1,65.2,63.5,91,75,55,29.65,29.50,6,1,0,0.00
2013-5-5,79.3,70.4,61.3,64.9,55.1,49.5,87,61,36,29.79,29.61,9,2,0,0.07
2013-5-6,81.0,68.9,59.5,61.6,55.5,50.3,85,64,45,29.86,29.75,7,1,0,0.00
2013-5-7,82.4,64.9,55.9,60.4,54.0,49.5,86,70,46,29.88,29.81,6,1,0,0.00
2013-5-8,84.4,76.9,63.1,64.8,59.3,55.8,78,55,45,29.99,29.89,6,1,0,0.00
2013-5-9,87.3,75.4,62.2,65.6,60.8,57.0,90,63,42,30.01,29.91,7,2,0,0.00
2013-5-10,93.6,80.6,68.2,71.2,66.7,60.8,89,65,43,29.99,29.82,9,2,0,0.00
2013-5-11,91.4,76.6,68.0,72.5,67.3,64.3,91,74,52,29.90,29.81,6,1,0,0.20
2013-5-12,91.9,78.8,70.0,75.2,67.8,62.8,93,71,51,29.89,29.78,6,1,0,0.00
2013-5-13,85.3,73.0,66.7,66.0,60.9,51.6,90,68,41,29.98,29.85,9,2,0,0.00
2013-5-14,85.3,73.5,59.5,59.1,55.9,52.9,83,56,35,30.05,29.95,9,5,0,0.00
2013-5-15,86.9,75.5,63.0,64.0,60.2,57.3,87,61,42,30.07,29.92,9,4,0,0.00
2013-5-16,88.9,77.9,68.0,64.9,61.3,57.0,75,58,36,29.98,29.84,9,4,0,0.10
2013-5-17,91.4,79.3,67.1,68.2,63.7,59.7,82,61,39,29.94,29.86,10,3,0,0.39
2013-5-18,95.5,82.0,70.7,72.2,67.0,62.2,86,63,37,29.95,29.82,10,3,0,0.77
2013-5-19,95.0,81.6,71.6,73.5,68.6,66.2,86,66,43,29.94,29.81,13,3,0,0.20
2013-5-20,95.2,78.6,66.7,72.1,67.9,61.7,91,72,45,29.92,29.79,29,3,0,1.90
2013-5-21,89.1,75.0,69.4,71.6,68.5,65.1,93,81,53,29.88,29.78,20,3,0,0.72
2013-5-22,90.5,76.8,69.8,71.8,69.1,66.1,91,78,53,29.81,29.73,9,2,0,0.32
2013-5-23,93.4,80.4,71.2,75.7,69.6,63.4,93,72,50,29.85,29.75,22,2,0,0.16
2013-5-24,96.1,82.4,70.5,75.2,67.5,61.6,92,64,35,29.91,29.81,9,2,0,0.00
2013-5-25,89.8,80.2,73.2,69.2,65.5,61.1,82,62,46,30.02,29.90,11,8,0,0.46
2013-5-26,86.7,76.9,65.8,63.7,61.2,59.4,81,60,40,30.06,29.95,15,6,0,0.23
2013-5-27,89.4,77.6,66.7,66.6,63.7,60.5,84,64,46,30.02,29.91,14,6,0,0.99
2013-5-28,88.3,77.5,70.5,71.1,68.4,65.0,86,74,56,29.99,29.89,19,8,0,2.65
2013-5-29,84.0,76.2,70.9,71.8,69.4,67.2,89,80,63,29.98,29.89,14,8,0,2.66
2013-5-30,85.5,78.3,73.4,71.7,69.4,66.5,88,75,60,29.94,29.86,20,9,0,4.51
2013-5-31,86.2,79.2,73.2,71.4,68.5,66.3,81,70,59,29.93,29.85,17,9,0,3.19
2013-6-1,91.2,78.8,73.4,74.0,71.0,69.0,92,78,57,29.89,29.77,12,6,0,1.24
2013-6-2,95.4,81.1,74.1,74.9,72.8,69.6,94,78,51,29.84,29.71,7,1,0,1.05
2013-6-3,89.2,79.8,73.6,77.0,72.5,70.3,98,80,57,29.85,29.74,5,1,0,0.01
2013-6-4,88.2,78.6,71.1,73.1,71.2,69.0,97,80,56,29.87,29.78,9,2,0,2.13
2013-6-5,82.2,76.2,72.9,77.2,73.4,70.0,98,92,69,29.86,29.74,10,5,0,0.10
2013-6-6,78.3,75.0,72.9,77.7,74.2,71.4,98,97,90,29.75,29.51,18,8,0,5.71
2013-6-8,74.7,73.3,72.5,73.3,72.7,71.9,98,98,94,29.95,29.87,6,1,0,0.67
2013-6-9,92.1,81.2,71.6,76.7,72.5,70.5,98,77,53,29.95,29.85,14,5,0,0.19
2013-6-10,94.6,81.2,72.9,77.5,73.8,67.9,98,80,52,29.93,29.83,9,3,0,0.73
2013-6-11,94.5,80.7,74.3,80.4,74.0,68.6,98,82,50,29.93,29.81,4,1,0,0.02
2013-6-12,96.1,81.9,69.8,75.9,72.5,66.5,98,77,47,29.93,29.83,4,0,0,1.57
2013-6-13,95.0,81.8,71.2,81.2,73.1,69.3,98,78,50,29.89,29.73,2,0,0,0.00
2013-6-14,93.0,83.1,74.1,78.4,72.5,69.5,98,73,51,29.79,29.69,4,0,0,0.00
2013-6-15,93.4,81.3,74.7,79.9,75.0,70.4,98,82,60,29.90,29.75,9,1,0,0.11
2013-6-16,95.2,83.8,75.9,78.7,75.4,72.4,98,78,50,29.92,29.82,5,2,0,2.12
2013-6-17,98.4,84.6,75.6,81.3,75.2,69.6,98,76,49,29.93,29.80,9,1,0,0.03
2013-6-18,96.6,84.0,73.6,77.7,73.3,69.8,98,73,49,29.92,29.79,3,0,0,0.01
2013-6-19,95.2,83.8,74.1,77.4,73.5,69.6,98,73,52,29.89,29.80,4,1,0,0.00
2013-6-20,96.4,82.3,73.2,77.2,72.1,67.1,98,74,50,29.94,29.83,16,1,0,0.02
2013-6-21,92.5,78.6,72.3,75.7,72.6,68.4,98,84,54,29.96,29.88,9,1,0,1.09
2013-6-22,94.3,81.8,73.6,76.9,72.5,66.0,98,77,45,29.96,29.87,9,2,0,0.00
2013-6-23,91.4,79.9,75.2,78.3,74.5,69.1,98,85,56,29.96,29.90,5,1,0,0.05
2013-6-24,93.7,86.0,76.5,76.8,72.2,69.5,98,65,47,30.02,29.90,8,3,0,0.00
2013-6-25,93.7,83.8,75.9,77.2,74.1,70.5,98,75,50,29.99,29.85,9,2,0,0.00
2013-6-26,86.0,73.8,71.8,75.0,72.0,69.7,98,95,65,29.92,29.85,18,2,0,0.73
2013-6-27,95.2,81.9,71.2,78.6,72.5,70.4,98,76,47,29.90,29.77,3,0,0,0.02
2013-6-28,94.3,80.0,72.3,77.8,73.7,68.5,98,83,55,29.82,29.69,9,0,0,0.44
2013-6-29,90.1,79.4,75.0,77.0,74.0,68.4,98,84,59,29.72,29.64,3,0,0,0.45
2013-6-30,91.4,78.6,74.5,77.0,73.2,70.3,95,85,63,29.71,29.66,9,1,0,0.31
2013-7-1,83.1,75.3,72.3,76.3,72.4,69.9,98,91,73,29.87,29.70,5,1,0,1.12
2013-7-2,82.8,76.0,73.4,77.7,73.9,70.7,98,94,71,29.94,29.82,9,1,0,0.45
2013-7-3,90.7,79.0,73.8,77.2,74.4,71.9,98,87,59,29.97,29.88,9,2,0,0.12
2013-7-4,89.1,78.8,73.6,77.6,73.9,68.9,98,86,63,30.00,29.91,16,2,0,0.04
2013-7-5,88.7,78.8,73.6,79.1,75.1,70.1,98,89,62,30.00,29.89,9,2,0,0.08
2013-7-6,91.2,80.1,75.6,78.8,74.8,71.4,98,86,55,29.96,29.86,9,2,0,0.02
2013-7-7,91.0,83.3,76.3,79.1,75.0,71.6,98,78,56,29.97,29.86,12,5,0,0.08
2013-7-8,93.7,83.3,77.0,79.3,74.6,70.0,98,78,53,29.99,29.90,5,2,0,0.00
2013-7-9,93.6,83.1,76.3,79.5,74.2,70.9,98,77,49,30.00,29.89,8,2,0,0.00
2013-7-10,93.9,81.1,74.3,79.1,74.8,70.7,98,84,50,29.93,29.79,9,1,0,0.00
2013-7-11,92.1,83.0,76.3,77.0,74.4,70.8,98,77,54,29.85,29.76,2,0,0,0.18
2013-7-12,91.2,81.5,73.0,80.0,75.0,72.3,98,82,61,29.79,29.72,6,0,0,0.06
2013-7-13,90.9,81.0,74.8,78.4,75.2,70.1,98,85,54,29.84,29.76,7,1,0,0.27
2013-7-14,88.2,76.5,73.6,80.5,75.0,73.0,98,96,68,29.93,29.81,4,1,0,0.41
2013-7-15,90.1,79.4,72.7,80.3,75.6,71.5,98,89,56,29.95,29.85,9,2,0,0.00
2013-7-16,89.2,77.8,72.3,81.6,75.4,71.7,98,93,62,30.00,29.92,9,3,0,0.84
2013-7-17,90.7,78.8,73.9,82.5,76.4,73.3,98,93,60,30.00,29.90,19,3,0,0.06
2013-7-18,87.8,77.6,73.0,81.8,75.2,72.4,98,93,65,29.96,29.87,7,1,0,0.44
2013-7-19,90.3,77.6,71.8,84.7,75.1,71.2,98,93,64,29.98,29.86,7,1,0,1.17
2013-7-20,94.8,78.7,72.9,87.4,76.9,72.3,98,95,57,29.95,29.85,9,0,0,0.23
2013-7-21,94.6,80.5,72.5,90.0,77.7,71.9,99,92,59,29.97,29.86,8,2,0,0.34
2013-7-22,95.2,79.5,73.9,89.6,76.8,73.3,98,93,57,29.97,29.90,21,2,0,1.22
2013-7-23,88.3,78.5,73.9,87.7,77.9,73.3,98,98,98,29.94,29.80,10,2,0,0.13
2013-7-24,92.5,80.3,74.8,87.2,78.9,74.2,98,96,69,29.84,29.72,8,2,0,0.91
2013-7-25,88.5,79.7,73.4,86.8,78.8,72.8,98,97,86,29.83,29.71,11,2,0,0.79
2013-7-26,97.9,81.9,74.5,88.2,78.7,73.9,98,91,59,29.85,29.77,8,2,0,0.02
2013-7-27,97.5,83.5,75.2,87.7,79.1,74.6,98,89,57,29.83,29.72,7,2,0,0.00
2013-7-28,93.7,81.1,74.5,84.9,77.4,73.9,98,90,57,29.90,29.77,7,2,0,0.00
2013-7-29,103.8,82.1,73.9,82.9,77.3,73.3,98,88,45,29.99,29.86,16,2,0,0.00
2013-7-30,97.2,84.1,75.9,85.0,78.9,74.8,98,86,54,30.01,29.90,14,4,0,0.00
2013-7-31,95.4,82.7,76.1,86.3,79.3,75.2,98,91,54,29.97,29.83,9,4,0,0.01
2013-8-1,93.6,80.5,75.4,82.5,76.7,73.5,98,90,56,29.90,29.76,17,3,0,0.22
2013-8-2,99.7,82.1,75.7,85.4,78.6,75.1,98,90,55,29.87,29.77,10,2,0,0.05
2013-8-3,94.8,79.3,74.8,86.3,77.2,74.2,98,94,62,29.94,29.84,6,1,0,0.48
2013-8-4,88.5,80.7,75.2,87.9,80.0,74.6,98,98,85,29.93,29.82,6,1,0,0.09
2013-8-5,93.6,82.6,76.3,89.0,80.3,75.7,98,93,70,29.86,29.74,7,2,0,0.36
2013-8-6,97.0,82.7,75.2,87.4,78.5,74.6,98,89,60,29.81,29.72,8,2,0,1.20
2013-8-7,95.4,83.8,79.0,86.1,80.9,78.4,98,92,64,29.81,29.73,13,5,0,0.00
2013-8-8,96.4,84.4,77.7,85.6,80.4,77.1,98,89,59,29.87,29.76,13,5,0,0.00
2013-8-9,94.6,81.7,75.6,85.4,79.2,75.0,98,93,66,29.90,29.80,15,5,0,0.15
2013-8-10,95.7,84.5,75.9,86.8,79.1,74.2,98,86,51,29.96,29.86,11,5,0,0.00
2013-8-11,94.8,85.5,77.5,87.2,79.6,73.6,98,85,55,30.00,29.88,9,5,0,0.00
2013-8-12,94.5,84.5,76.3,87.2,79.1,73.5,98,86,59,29.96,29.83,11,4,0,0.00
2013-8-13,102.4,86.2,75.0,86.3,78.8,72.8,98,82,48,29.89,29.75,8,2,0,0.00
2013-8-14,95.9,82.6,77.4,89.3,80.7,76.8,98,95,59,29.87,29.73,7,2,0,0.00
2013-8-15,93.6,82.2,74.5,87.8,79.8,73.9,98,93,65,29.88,29.76,9,2,0,0.00
2013-8-16,95.4,84.2,77.9,87.6,80.7,77.2,98,90,59,29.89,29.79,9,2,0,0.00
2013-8-17,94.5,82.4,77.7,89.9,81.0,77.1,98,96,69,29.92,29.81,15,4,0,0.07
2013-8-18,90.0,80.0,75.2,88.3,79.4,74.6,98,98,92,29.95,29.84,10,4,0,0.88
2013-8-19,94.6,81.0,75.0,88.8,79.6,74.4,98,96,66,29.93,29.80,10,4,0,0.10
2013-8-20,93.2,81.0,75.6,88.8,79.1,75.0,98,95,64,29.93,29.81,17,4,0,0.44
2013-8-21,91.4,80.8,74.5,89.7,80.0,73.9,98,97,84,29.95,29.85,18,6,0,0.81
2013-8-22,91.0,80.6,77.4,89.0,79.9,76.8,98,97,85,29.92,29.82,13,5,0,0.40
2013-8-23,94.1,81.7,76.1,88.2,79.8,75.5,98,95,66,29.86,29.77,19,5,0,0.10
2013-8-24,95.2,81.2,76.3,88.3,79.4,75.7,98,95,64,29.95,29.84,21,4,0,0.02
2013-8-25,89.1,80.5,75.7,87.7,79.9,75.1,98,98,95,29.99,29.91,11,6,0,0.16
2013-8-26,88.9,79.0,74.8,87.9,78.4,74.2,98,98,93,29.97,29.83,10,4,0,0.39
2013-8-27,90.1,80.9,74.1,83.4,76.9,73.3,98,89,62,29.90,29.80,12,6,0,0.01
2013-8-28,95.2,81.3,74.5,82.9,76.6,71.3,98,88,52,29.89,29.80,11,4,0,0.00
2013-8-29,93.4,82.3,73.8,84.9,77.1,73.2,98,86,58,29.88,29.75,7,2,0,0.00
2013-8-30,96.8,82.2,75.6,86.6,78.5,75.0,98,90,57,29.82,29.72,10,2,0,0.02
2013-8-31,98.2,82.6,73.4,86.1,77.8,72.8,98,87,58,29.82,29.71,7,2,0,0.00
2013-9-1,97.5,81.0,73.0,87.7,78.0,72.4,98,92,57,29.83,29.73,8,2,0,0.00
2013-9-2,92.1,79.3,72.7,88.3,78.3,72.1,98,97,69,29.85,29.77,8,1,0,0.42
2013-9-3,88.5,79.7,72.9,87.9,79.1,72.3,98,98,98,29.85,29.76,5,1,0,0.16
2013-9-4,99.5,80.0,72.3,88.0,77.8,71.7,98,94,59,29.93,29.81,19,2,0,0.71
2013-9-5,99.7,80.8,72.5,87.9,77.9,71.9,98,92,55,29.93,29.82,10,3,0,0.72
2013-9-6,97.0,80.0,73.2,87.5,77.1,72.6,98,92,59,29.89,29.76,20,2,0,0.32
2013-9-7,94.6,78.7,73.2,87.6,76.5,72.6,98,94,60,29.86,29.74,17,4,0,0.26
2013-9-8,94.1,81.3,73.8,85.4,77.6,73.2,98,90,58,29.81,29.69,12,5,0,0.00
2013-9-9,91.4,81.9,74.8,85.7,78.5,72.6,98,91,60,29.87,29.76,10,6,0,0.00
2013-9-10,88.7,81.9,76.5,83.4,78.2,73.1,98,90,61,29.92,29.82,15,7,0,0.00
2013-9-11,90.5,81.9,75.6,85.0,78.3,73.7,98,90,61,29.91,29.81,14,7,0,0.00
2013-9-12,91.6,79.0,74.5,87.3,77.6,73.9,98,96,62,29.86,29.73,12,3,0,0.12
2013-9-13,99.5,81.5,72.5,87.2,77.4,71.9,98,89,53,29.74,29.62,7,1,0,0.01
2013-9-14,99.7,83.4,74.7,86.5,78.6,74.1,98,88,55,29.81,29.66,11,2,0,0.00
2013-9-15,90.5,78.5,72.1,88.9,77.8,71.5,98,98,92,29.92,29.80,22,4,0,0.79
2013-9-16,91.4,78.5,73.9,87.9,77.5,73.3,98,97,77,29.91,29.82,18,5,0,0.63
2013-9-17,88.0,79.1,74.3,87.4,78.5,73.7,98,98,98,29.89,29.78,14,6,0,0.11
2013-9-18,84.6,78.7,74.7,84.0,78.1,74.1,98,98,98,29.88,29.78,15,7,0,0.23
2013-9-19,88.7,82.2,74.5,86.1,81.1,73.9,98,96,84,29.88,29.79,12,8,0,0.04
2013-9-20,90.0,80.1,73.6,82.4,76.1,71.7,98,89,60,29.87,29.73,11,5,0,0.00
2013-9-21,95.2,81.0,72.9,83.4,76.1,72.3,98,87,58,29.78,29.59,7,2,0,0.00
2013-9-22,91.8,80.4,74.8,90.1,79.7,74.2,98,98,91,29.70,29.60,5,2,0,0.23
2013-9-23,84.4,77.5,75.2,83.8,76.9,74.6,98,98,98,29.80,29.67,9,4,0,1.25
2013-9-24,82.9,76.8,74.3,82.3,76.2,73.7,98,98,98,29.80,29.68,5,2,0,0.11
2013-9-25,84.4,75.8,72.1,83.8,75.2,71.5,98,98,98,29.73,29.62,5,2,0,0.22
2013-9-26,91.6,80.3,74.5,91.0,77.7,71.1,98,93,57,29.71,29.61,10,2,0,0.12
2013-9-27,81.3,75.9,71.1,80.7,75.3,70.5,98,98,98,29.80,29.69,12,6,0,0.00
2013-9-28,83.3,76.8,71.8,82.7,76.2,71.2,98,98,98,29.84,29.75,11,6,0,0.00
2013-9-29,90.9,77.2,71.1,84.5,74.9,70.5,98,94,65,29.83,29.72,8,4,0,0.00
2013-9-30,98.6,85.1,74.7,90.3,80.2,74.1,98,87,55,29.85,29.73,9,4,0,0.00
2013-10-1,91.4,80.0,73.8,89.5,78.9,73.2,98,97,75,29.89,29.79,12,6,0,0.00
2013-10-2,87.4,79.5,73.0,86.8,78.9,72.4,98,98,98,29.89,29.80,9,6,0,0.00
2013-10-3,91.8,80.7,73.2,88.3,79.8,72.6,98,97,83,29.91,29.81,11,5,0,0.00
2013-10-4,93.7,81.4,75.0,90.4,80.0,74.4,98,96,79,29.92,29.81,9,4,0,0.00
2013-10-5,89.8,80.4,72.5,89.2,79.8,71.9,98,98,98,29.90,29.77,11,5,0,0.00
2013-10-6,95.4,82.1,73.9,91.3,80.4,73.3,98,95,70,29.82,29.68,7,3,0,0.00
2013-10-7,89.2,78.0,71.2,88.6,77.4,70.6,98,98,98,29.71,29.57,7,2,0,0.66
2013-10-8,90.1,79.2,74.8,89.5,78.6,74.2,98,98,98,29.78,29.62,10,3,0,0.51
2013-10-9,82.6,74.5,68.9,82.0,73.9,68.3,98,98,98,29.87,29.76,12,8,0,0.00
2013-10-10,88.9,76.1,66.7,88.3,75.5,66.1,98,98,98,29.89,29.79,11,5,0,0.00
2013-10-11,94.3,78.2,67.5,84.6,75.1,66.9,98,92,65,29.88,29.76,7,1,0,0.00
2013-10-12,89.2,77.5,65.7,86.3,74.9,65.1,98,92,65,29.88,29.80,8,2,0,0.00
2013-10-13,88.3,77.3,68.7,85.9,73.9,68.1,98,90,64,29.92,29.82,7,2,0,0.00
2013-10-14,86.2,76.6,68.7,85.6,76.0,68.1,98,98,98,29.88,29.76,10,5,0,0.00
2013-10-15,79.5,72.5,68.4,78.9,71.9,67.8,98,98,98,29.84,29.73,9,4,0,0.00
2013-10-16,92.3,78.7,70.7,90.3,77.5,70.1,98,96,73,29.82,29.72,7,2,0,0.00
2013-10-17,93.2,80.5,71.2,92.1,79.8,70.6,98,98,93,29.82,29.71,6,1,0,0.02
2013-10-18,94.1,80.9,73.2,93.2,80.2,72.6,98,98,93,29.83,29.71,9,3,0,0.00
2013-10-19,93.0,81.1,73.6,92.3,80.5,73.0,98,98,98,29.79,29.69,6,2,0,0.00
2013-10-20,96.4,81.2,74.1,95.7,80.6,73.5,98,98,98,29.80,29.70,10,3,0,0.12
2013-10-21,90.3,78.2,74.3,90.0,76.3,-99.9,99,97,98,29.81,29.73,6,-12,0,0.21
2013-10-22,89.6,79.5,72.9,89.3,79.2,72.6,99,99,99,29.77,29.64,7,2,0,0.06
2013-10-23,81.1,73.9,69.3,80.8,73.5,68.7,99,99,97,29.85,29.64,13,3,0,0.00
2013-10-24,71.4,67.1,62.1,70.8,66.5,61.5,98,98,98,30.01,29.84,14,7,0,0.00
2013-10-25,79.2,69.5,61.5,75.2,65.9,60.4,98,89,60,30.09,29.98,11,6,0,0.00
2013-10-26,78.6,68.7,59.5,70.1,60.7,54.3,83,77,52,30.05,29.92,9,4,0,0.00
2013-10-27,79.3,68.3,59.4,69.6,59.2,52.5,78,74,46,29.98,29.88,10,4,0,0.00
2013-10-28,83.1,71.8,60.4,75.5,64.6,53.5,78,78,78,30.03,29.93,9,4,0,0.00
2013-10-29,83.8,73.3,64.2,76.2,66.0,57.2,78,78,78,30.07,29.96,14,6,0,0.00
2013-10-30,84.2,74.4,66.4,76.6,67.0,59.3,78,78,78,30.06,29.93,10,5,0,0.00
2013-10-31,84.9,76.4,67.1,77.3,69.0,60.0,78,78,78,29.97,29.81,11,4,0,0.00
2013-11-1,88.2,77.3,69.8,80.4,69.9,62.6,78,78,78,29.85,29.69,10,2,0,0.00
2013-11-2,76.6,70.5,66.0,69.2,63.3,58.9,78,78,78,29.81,29.65,7,2,0,0.10
2013-11-3,74.8,66.8,61.0,65.4,55.7,44.3,78,70,34,29.95,29.79,14,7,0,0.00
2013-11-4,77.5,69.1,60.6,70.1,61.9,53.7,78,78,78,30.01,29.93,20,9,0,0.05
2013-11-5,81.0,72.7,65.5,73.5,65.4,58.5,78,78,78,29.98,29.89,17,9,0,0.01
2013-11-6,83.1,74.8,68.5,75.5,67.5,61.4,78,78,78,29.94,29.85,9,5,0,0.00
2013-11-7,80.2,71.8,65.8,72.7,64.6,58.7,78,78,78,29.89,29.79,7,3,0,0.00
2013-11-8,77.2,70.1,64.2,69.8,62.9,57.2,78,78,78,29.96,29.83,17,8,0,0.00
2013-11-9,79.7,71.6,63.5,72.2,64.4,56.5,78,78,78,30.01,29.93,15,7,0,0.00
2013-11-10,82.6,72.9,64.2,75.0,65.7,57.2,78,78,78,30.00,29.90,9,5,0,0.00
2013-11-11,82.0,72.7,64.8,74.4,65.4,57.8,78,78,78,30.00,29.89,8,5,0,0.00
2013-11-12,81.3,72.2,64.8,73.8,64.9,57.8,78,78,78,29.94,29.82,10,2,0,0.00
2013-11-13,69.1,61.5,54.9,61.9,54.5,48.2,78,78,78,30.15,29.91,25,13,0,0.00
2013-11-14,75.2,63.9,52.9,67.9,56.9,46.2,78,78,78,30.15,30.03,18,8,0,0.00
2013-11-15,76.8,68.6,61.7,69.4,61.5,54.8,78,78,78,30.03,29.91,14,5,0,0.01
2013-11-16,73.8,70.6,68.2,66.5,63.4,61.1,78,78,78,29.97,29.86,9,5,0,0.10
2013-11-17,84.9,75.5,68.5,77.3,68.1,61.4,78,78,78,29.92,29.81,10,3,0,0.00
2013-11-18,86.0,75.6,67.5,78.3,68.3,60.4,78,78,78,29.87,29.74,5,1,0,0.00
2013-11-19,79.7,72.1,65.1,72.2,64.9,58.1,78,78,78,29.81,29.71,9,4,0,0.00
2013-11-20,82.4,71.5,64.0,74.8,64.3,57.0,78,78,78,29.94,29.80,15,7,0,0.00
2013-11-21,81.1,73.2,70.5,73.6,66.0,63.3,78,78,78,30.02,29.92,14,7,0,0.02
2013-11-22,80.2,74.0,69.6,72.7,66.7,62.4,78,78,78,30.03,29.92,13,6,0,0.00
2013-11-23,84.4,73.4,65.5,76.8,66.1,58.5,78,78,78,29.95,29.83,8,3,0,0.00
2013-11-24,70.2,65.5,61.9,63.0,58.5,55.0,78,78,78,30.06,29.85,18,10,0,0.00
2013-11-25,73.9,68.1,63.0,66.6,61.0,56.0,78,78,78,30.08,29.91,18,10,0,0.00
2013-11-26,82.9,73.8,66.9,75.3,66.4,59.8,78,78,78,29.90,29.58,13,6,0,0.14
2013-11-27,73.4,62.8,43.9,66.1,55.8,37.5,78,78,78,30.06,29.54,14,5,0,0.29
2013-11-28,64.6,51.7,38.8,57.6,45.1,32.5,78,78,78,30.20,30.05,16,8,0,0.00
2013-11-29,71.1,60.3,52.2,63.9,53.4,45.6,78,78,78,30.21,30.11,14,9,0,0.00
2013-11-30,75.4,64.5,55.8,68.0,57.5,49.0,78,78,78,30.16,30.01,14,8,0,0.00
2013-12-1,70.9,66.0,61.9,63.7,59.0,55.0,78,78,78,30.03,29.82,10,4,0,0.01
2013-12-2,72.3,65.2,61.2,65.0,58.2,54.3,78,78,78,29.81,29.67,5,1,0,0.00
2013-12-3,77.0,67.6,57.9,69.6,60.5,51.1,78,78,78,29.83,29.72,9,2,0,0.00
2013-12-4,83.3,70.8,62.4,75.7,63.6,55.4,78,78,78,29.92,29.81,6,1,0,0.04
2013-12-5,81.7,73.1,63.9,74.2,65.8,56.9,78,78,78,30.02,29.90,10,3,0,0.00
2013-12-6,83.7,74.6,66.2,76.1,67.3,59.1,78,78,78,30.01,29.91,9,2,0,0.01
2013-12-7,82.6,73.5,64.9,75.0,66.2,57.9,78,78,78,30.08,29.96,11,2,0,0.00
2013-12-8,82.8,74.2,66.9,75.2,66.9,59.8,78,78,78,30.07,29.93,11,4,0,0.00
2013-12-9,82.9,73.5,66.9,75.3,66.2,59.8,78,78,78,30.03,29.91,8,2,0,0.00
2013-12-10,84.0,73.4,63.0,76.4,66.1,56.0,78,78,78,30.01,29.90,8,1,0,0.00
2013-12-11,83.7,71.8,61.2,76.1,64.5,54.3,78,78,78,30.09,29.97,12,5,0,0.00
2013-12-12,68.9,63.0,53.2,61.7,55.6,46.5,78,77,62,30.15,30.02,14,8,0,0.00
2013-12-13,73.8,62.7,51.4,66.5,55.7,44.8,78,78,78,30.12,29.96,14,6,0,0.00
2013-12-14,81.9,72.2,62.2,74.3,64.9,55.3,78,78,78,29.96,29.78,14,4,0,0.00
2013-12-15,73.8,68.5,59.5,66.5,61.4,52.6,78,78,78,29.96,29.72,11,3,0,0.45
2013-12-16,64.2,56.9,49.3,57.2,50.1,42.7,78,78,78,30.08,29.95,10,6,0,0.00
2013-12-17,71.6,58.3,46.9,64.4,51.4,40.4,78,78,78,30.10,29.98,10,4,0,0.00
2013-12-18,68.9,58.2,49.1,61.4,51.2,42.5,78,78,68,30.14,30.05,12,4,0,0.00
2013-12-19,74.1,62.1,48.7,66.8,55.2,42.2,78,78,78,30.13,30.01,9,4,0,0.00
2013-12-20,81.0,69.4,56.8,73.5,62.2,50.0,78,78,78,30.05,29.93,10,4,0,0.00
2013-12-21,82.2,73.9,66.2,74.6,66.6,59.1,78,78,78,29.99,29.85,14,6,0,0.00
2013-12-22,84.0,75.0,69.3,76.4,67.6,62.1,78,78,78,29.98,29.90,10,4,0,0.00
2013-12-23,85.1,74.9,68.2,77.4,67.5,61.1,78,78,78,30.01,29.90,9,2,0,0.00
2013-12-24,72.5,64.2,52.0,65.2,57.1,45.4,78,78,76,30.10,29.93,14,6,0,0.00
2013-12-25,74.3,61.1,48.4,67.0,54.1,41.9,78,78,78,30.09,29.97,16,7,0,0.00
2013-12-26,76.5,65.3,57.9,69.1,58.2,51.1,78,78,78,30.07,29.93,10,6,0,0.00
2013-12-27,70.3,65.2,59.9,63.1,58.1,53.0,78,78,78,30.10,29.99,12,7,0,0.00
2013-12-28,77.9,71.5,65.3,70.5,64.3,58.3,78,78,78,30.06,29.85,12,7,0,0.00
2013-12-29,78.1,71.0,62.1,70.7,63.8,55.2,78,78,78,29.84,29.72,11,3,0,0.59
2013-12-30,64.6,61.3,58.8,57.6,54.4,52.0,78,78,78,30.04,29.83,10,3,0,0.01
2013-12-31,68.0,62.4,58.1,60.9,55.5,51.3,78,78,78,30.15,30.02,11,6,0,0.00
2014-1-1,65.7,61.9,58.6,58.6,54.9,51.8,78,78,78,30.10,29.91,13,7,0,0.08
2014-1-2,82.4,70.4,62.1,74.8,63.2,55.2,78,78,78,29.90,29.65,8,3,0,0.77